sensor_id;sensor_type;location;lat;lon;timestamp;pressure;altitude;pressure_sealevel;temperature;humidity
6833;BME280;3454;42.654;23.378;2023-04-22T00:00:48;64143.97;;;11.38;81.63
6833;BME280;3454;42.654;23.378;2023-04-22T00:03:13;64146.72;;;11.41;80.40
6833;BME280;3454;42.654;23.378;2023-04-22T00:05:40;64123.16;;;11.19;82.75
6833;BME280;3454;42.654;23.378;2023-04-22T00:08:07;64106.75;;;11.04;82.83
6833;BME280;3454;42.654;23.378;2023-04-22T00:10:33;64114.38;;;11.11;82.89
6833;BME280;3454;42.654;23.378;2023-04-22T00:12:58;64124.81;;;11.21;79.99
6833;BME280;3454;42.654;23.378;2023-04-22T00:15:24;64102.91;;;11.01;79.20
6833;BME280;3454;42.654;23.378;2023-04-22T00:17:50;64088.88;;;10.90;79.61
6833;BME280;3454;42.654;23.378;2023-04-22T00:20:18;64067.00;;;10.70;80.37
6833;BME280;3454;42.654;23.378;2023-04-22T00:22:45;64059.00;;;10.65;80.50
6833;BME280;3454;42.654;23.378;2023-04-22T00:25:11;64044.31;;;10.47;81.35
6833;BME280;3454;42.654;23.378;2023-04-22T00:27:36;64047.84;;;10.52;80.77
6833;BME280;3454;42.654;23.378;2023-04-22T00:30:03;64032.53;;;10.38;81.15
6833;BME280;3454;42.654;23.378;2023-04-22T00:32:28;64028.47;;;10.32;81.17
6833;BME280;3454;42.654;23.378;2023-04-22T00:34:53;64018.06;;;10.23;81.84
6833;BME280;3454;42.654;23.378;2023-04-22T00:37:20;64007.91;;;10.16;82.50
6833;BME280;3454;42.654;23.378;2023-04-22T00:39:45;64013.13;;;10.18;83.20
6833;BME280;3454;42.654;23.378;2023-04-22T00:42:12;64027.03;;;10.33;82.84
6833;BME280;3454;42.654;23.378;2023-04-22T00:44:39;64031.97;;;10.38;82.01
6833;BME280;3454;42.654;23.378;2023-04-22T00:47:05;64044.31;;;10.47;81.10
6833;BME280;3454;42.654;23.378;2023-04-22T00:49:32;64054.75;;;10.56;81.01
6833;BME280;3454;42.654;23.378;2023-04-22T00:51:58;64050.03;;;10.54;81.64
6833;BME280;3454;42.654;23.378;2023-04-22T00:54:24;64059.31;;;10.63;81.65
6833;BME280;3454;42.654;23.378;2023-04-22T00:56:49;64063.16;;;10.66;81.89
6833;BME280;3454;42.654;23.378;2023-04-22T00:59:15;64048.69;;;10.51;82.91
6833;BME280;3454;42.654;23.378;2023-04-22T01:01:41;64018.84;;;10.26;84.29
6833;BME280;3454;42.654;23.378;2023-04-22T01:04:06;63990.91;;;10.00;86.57
6833;BME280;3454;42.654;23.378;2023-04-22T01:06:34;64034.16;;;10.40;85.42
6833;BME280;3454;42.654;23.378;2023-04-22T01:08:59;64068.06;;;10.71;83.63
6833;BME280;3454;42.654;23.378;2023-04-22T01:11:24;64061.31;;;10.62;83.25
6833;BME280;3454;42.654;23.378;2023-04-22T01:13:50;64043.78;;;10.46;82.15
6833;BME280;3454;42.654;23.378;2023-04-22T01:16:17;64056.38;;;10.58;80.35
6833;BME280;3454;42.654;23.378;2023-04-22T01:18:42;64043.25;;;10.46;79.70
6833;BME280;3454;42.654;23.378;2023-04-22T01:21:08;64026.47;;;10.33;81.25
6833;BME280;3454;42.654;23.378;2023-04-22T01:23:33;64016.97;;;10.22;81.55
6833;BME280;3454;42.654;23.378;2023-04-22T01:25:59;64025.06;;;10.34;81.12
6833;BME280;3454;42.654;23.378;2023-04-22T01:28:24;64031.97;;;10.38;80.32
6833;BME280;3454;42.654;23.378;2023-04-22T01:30:50;64041.28;;;10.46;80.29
6833;BME280;3454;42.654;23.378;2023-04-22T01:33:17;64034.38;;;10.42;80.73
6833;BME280;3454;42.654;23.378;2023-04-22T01:35:43;64037.75;;;10.41;80.66
6833;BME280;3454;42.654;23.378;2023-04-22T01:38:10;64036.91;;;10.42;80.83
6833;BME280;3454;42.654;23.378;2023-04-22T01:40:37;64019.38;;;10.26;81.70
6833;BME280;3454;42.654;23.378;2023-04-22T01:43:03;64033.06;;;10.39;81.83
6833;BME280;3454;42.654;23.378;2023-04-22T01:45:29;64045.44;;;10.48;81.10
6833;BME280;3454;42.654;23.378;2023-04-22T01:47:55;64049.25;;;10.51;81.48
6833;BME280;3454;42.654;23.378;2023-04-22T01:50:22;64033.38;;;10.37;83.01
6833;BME280;3454;42.654;23.378;2023-04-22T01:52:48;64020.69;;;10.30;82.84
6833;BME280;3454;42.654;23.378;2023-04-22T01:55:13;64012.28;;;10.20;83.82
6833;BME280;3454;42.654;23.378;2023-04-22T01:57:39;64035.56;;;10.39;82.85
6833;BME280;3454;42.654;23.378;2023-04-22T02:00:06;64035.56;;;10.39;82.95
6833;BME280;3454;42.654;23.378;2023-04-22T02:02:32;64016.84;;;10.26;84.67
6833;BME280;3454;42.654;23.378;2023-04-22T02:04:58;64009.88;;;10.15;85.65
6833;BME280;3454;42.654;23.378;2023-04-22T02:07:24;64023.00;;;10.27;84.43
6833;BME280;3454;42.654;23.378;2023-04-22T02:09:50;64033.38;;;10.37;83.68
6833;BME280;3454;42.654;23.378;2023-04-22T02:12:15;64032.53;;;10.38;83.07
6833;BME280;3454;42.654;23.378;2023-04-22T02:14:41;64036.13;;;10.39;83.66
6833;BME280;3454;42.654;23.378;2023-04-22T02:17:06;64032.53;;;10.38;84.16
6833;BME280;3454;42.654;23.378;2023-04-22T02:19:32;64042.13;;;10.45;84.53
6833;BME280;3454;42.654;23.378;2023-04-22T02:21:57;64070.06;;;10.70;83.84
6833;BME280;3454;42.654;23.378;2023-04-22T02:24:23;64052.00;;;10.54;84.39
6833;BME280;3454;42.654;23.378;2023-04-22T02:26:48;64036.91;;;10.42;83.92
6833;BME280;3454;42.654;23.378;2023-04-22T02:29:14;64048.16;;;10.50;83.53
6833;BME280;3454;42.654;23.378;2023-04-22T02:31:40;64051.66;;;10.56;83.36
6833;BME280;3454;42.654;23.378;2023-04-22T02:34:06;64046.50;;;10.49;83.85
6833;BME280;3454;42.654;23.378;2023-04-22T02:36:31;64031.41;;;10.37;85.53
6833;BME280;3454;42.654;23.378;2023-04-22T02:38:58;64038.53;;;10.44;84.49
6833;BME280;3454;42.654;23.378;2023-04-22T02:41:24;64054.19;;;10.56;84.03
6833;BME280;3454;42.654;23.378;2023-04-22T02:43:50;64054.94;;;10.59;83.30
6833;BME280;3454;42.654;23.378;2023-04-22T02:46:16;64058.22;;;10.62;82.28
6833;BME280;3454;42.654;23.378;2023-04-22T02:48:41;64047.50;;;10.54;82.30
6833;BME280;3454;42.654;23.378;2023-04-22T02:51:07;64026.47;;;10.33;82.81
6833;BME280;3454;42.654;23.378;2023-04-22T02:53:32;63997.78;;;10.04;84.23
6833;BME280;3454;42.654;23.378;2023-04-22T02:55:58;63995.59;;;10.02;85.18
6833;BME280;3454;42.654;23.378;2023-04-22T02:58:23;64017.19;;;10.24;84.34
6833;BME280;3454;42.654;23.378;2023-04-22T03:00:50;64022.44;;;10.27;84.07
6833;BME280;3454;42.654;23.378;2023-04-22T03:03:16;64039.94;;;10.43;83.12
6833;BME280;3454;42.654;23.378;2023-04-22T03:05:41;64013.91;;;10.21;83.15
6833;BME280;3454;42.654;23.378;2023-04-22T03:08:06;63990.69;;;9.97;84.72
6833;BME280;3454;42.654;23.378;2023-04-22T03:10:32;64006.03;;;10.11;83.91
6833;BME280;3454;42.654;23.378;2023-04-22T03:12:57;64010.63;;;10.18;84.03
6833;BME280;3454;42.654;23.378;2023-04-22T03:15:22;64019.91;;;10.27;83.39
6833;BME280;3454;42.654;23.378;2023-04-22T03:17:48;64011.94;;;10.22;83.87
6833;BME280;3454;42.654;23.378;2023-04-22T03:20:14;64015.00;;;10.22;84.71
6833;BME280;3454;42.654;23.378;2023-04-22T03:22:40;64010.94;;;10.16;84.71
6833;BME280;3454;42.654;23.378;2023-04-22T03:25:05;64023.53;;;10.28;84.79
6833;BME280;3454;42.654;23.378;2023-04-22T03:27:31;64023.53;;;10.28;85.36
6833;BME280;3454;42.654;23.378;2023-04-22T03:29:57;64026.81;;;10.31;84.67
6833;BME280;3454;42.654;23.378;2023-04-22T03:32:22;64043.78;;;10.46;84.54
6833;BME280;3454;42.654;23.378;2023-04-22T03:34:48;64032.28;;;10.36;84.80
6833;BME280;3454;42.654;23.378;2023-04-22T03:37:13;64024.06;;;10.28;85.60
6833;BME280;3454;42.654;23.378;2023-04-22T03:39:39;63996.94;;;10.05;85.93
6833;BME280;3454;42.654;23.378;2023-04-22T03:42:04;63993.97;;;10.00;84.06
6833;BME280;3454;42.654;23.378;2023-04-22T03:44:30;63982.16;;;9.92;83.85
6833;BME280;3454;42.654;23.378;2023-04-22T03:46:55;63973.19;;;9.81;85.02
6833;BME280;3454;42.654;23.378;2023-04-22T03:49:21;63952.41;;;9.62;83.93
6833;BME280;3454;42.654;23.378;2023-04-22T03:51:46;63941.16;;;9.54;84.62
6833;BME280;3454;42.654;23.378;2023-04-22T03:54:12;63922.34;;;9.35;85.45
6833;BME280;3454;42.654;23.378;2023-04-22T03:56:37;63905.75;;;9.17;86.64
6833;BME280;3454;42.654;23.378;2023-04-22T03:59:02;63894.25;;;9.06;86.95
6833;BME280;3454;42.654;23.378;2023-04-22T04:01:28;63917.66;;;9.32;86.58
6833;BME280;3454;42.654;23.378;2023-04-22T04:03:53;63931.31;;;9.45;85.52
6833;BME280;3454;42.654;23.378;2023-04-22T04:06:19;63914.16;;;9.27;85.56
6833;BME280;3454;42.654;23.378;2023-04-22T04:08:45;63906.16;;;9.22;86.16
6833;BME280;3454;42.654;23.378;2023-04-22T04:11:10;63920.91;;;9.36;86.26
6833;BME280;3454;42.654;23.378;2023-04-22T04:13:36;63930.22;;;9.44;86.51
6833;BME280;3454;42.654;23.378;2023-04-22T04:16:01;63920.72;;;9.33;84.43
6833;BME280;3454;42.654;23.378;2023-04-22T04:18:28;63917.97;;;9.30;84.44
6833;BME280;3454;42.654;23.378;2023-04-22T04:20:54;63915.25;;;9.28;83.95
6833;BME280;3454;42.654;23.378;2023-04-22T04:23:20;63923.44;;;9.36;83.89
6833;BME280;3454;42.654;23.378;2023-04-22T04:25:46;63902.34;;;9.18;84.94
6833;BME280;3454;42.654;23.378;2023-04-22T04:28:12;63896.34;;;9.13;85.00
6833;BME280;3454;42.654;23.378;2023-04-22T04:30:38;63948.03;;;9.58;84.57
6833;BME280;3454;42.654;23.378;2023-04-22T04:33:06;63946.94;;;9.57;84.57
6833;BME280;3454;42.654;23.378;2023-04-22T04:35:32;63940.06;;;9.53;85.28
6833;BME280;3454;42.654;23.378;2023-04-22T04:38:03;63979.22;;;9.87;83.97
6833;BME280;3454;42.654;23.378;2023-04-22T04:40:29;63983.81;;;9.93;83.86
6833;BME280;3454;42.654;23.378;2023-04-22T04:42:55;63995.94;;;10.00;84.02
6833;BME280;3454;42.654;23.378;2023-04-22T04:45:22;63994.75;;;10.03;83.56
6833;BME280;3454;42.654;23.378;2023-04-22T04:47:48;63997.25;;;10.03;84.18
6833;BME280;3454;42.654;23.378;2023-04-22T04:50:17;64033.59;;;10.39;82.04
6833;BME280;3454;42.654;23.378;2023-04-22T04:52:44;64028.69;;;10.35;81.76
6833;BME280;3454;42.654;23.378;2023-04-22T04:55:10;64042.13;;;10.45;81.62
6833;BME280;3454;42.654;23.378;2023-04-22T04:57:36;64045.44;;;10.48;82.44
6833;BME280;3454;42.654;23.378;2023-04-22T05:00:01;64023.53;;;10.28;84.56
6833;BME280;3454;42.654;23.378;2023-04-22T05:02:27;64024.63;;;10.29;85.41
6833;BME280;3454;42.654;23.378;2023-04-22T05:04:53;64033.59;;;10.39;84.81
6833;BME280;3454;42.654;23.378;2023-04-22T05:07:18;64055.81;;;10.57;84.01
6833;BME280;3454;42.654;23.378;2023-04-22T05:09:43;64097.97;;;10.96;82.47
6833;BME280;3454;42.654;23.378;2023-04-22T05:12:09;64103.44;;;11.01;81.44
6833;BME280;3454;42.654;23.378;2023-04-22T05:14:35;64098.31;;;10.94;81.33
6833;BME280;3454;42.654;23.378;2023-04-22T05:17:01;64114.06;;;11.13;81.01
6833;BME280;3454;42.654;23.378;2023-04-22T05:19:27;64119.53;;;11.18;80.63
6833;BME280;3454;42.654;23.378;2023-04-22T05:21:52;64144.53;;;11.39;79.72
6833;BME280;3454;42.654;23.378;2023-04-22T05:24:18;64126.66;;;11.25;80.38
6833;BME280;3454;42.654;23.378;2023-04-22T05:26:43;64134.09;;;11.29;79.99
6833;BME280;3454;42.654;23.378;2023-04-22T05:29:09;64137.97;;;11.33;80.07
6833;BME280;3454;42.654;23.378;2023-04-22T05:31:34;64140.16;;;11.35;80.29
6833;BME280;3454;42.654;23.378;2023-04-22T05:33:59;64132.47;;;11.28;80.55
6833;BME280;3454;42.654;23.378;2023-04-22T05:36:25;64105.84;;;11.06;81.23
6833;BME280;3454;42.654;23.378;2023-04-22T05:38:52;64083.41;;;10.85;81.96
6833;BME280;3454;42.654;23.378;2023-04-22T05:41:18;64092.50;;;10.91;81.83
6833;BME280;3454;42.654;23.378;2023-04-22T05:43:43;64081.53;;;10.81;82.43
6833;BME280;3454;42.654;23.378;2023-04-22T05:46:08;64059.53;;;10.65;84.36
6833;BME280;3454;42.654;23.378;2023-04-22T05:48:34;64058.78;;;10.62;83.25
6833;BME280;3454;42.654;23.378;2023-04-22T05:51:00;64072.25;;;10.72;83.84
6833;BME280;3454;42.654;23.378;2023-04-22T05:53:25;64095.22;;;10.93;81.99
6833;BME280;3454;42.654;23.378;2023-04-22T05:55:52;64075.75;;;10.78;82.66
6833;BME280;3454;42.654;23.378;2023-04-22T05:58:18;64083.41;;;10.85;83.46
6833;BME280;3454;42.654;23.378;2023-04-22T06:00:43;64068.41;;;10.69;83.57
6833;BME280;3454;42.654;23.378;2023-04-22T06:03:08;64076.84;;;10.79;83.82
6833;BME280;3454;42.654;23.378;2023-04-22T06:05:34;64046.75;;;10.51;84.89
6833;BME280;3454;42.654;23.378;2023-04-22T06:07:59;64050.56;;;10.55;85.54
6833;BME280;3454;42.654;23.378;2023-04-22T06:10:25;64089.97;;;10.91;83.91
6833;BME280;3454;42.654;23.378;2023-04-22T06:12:50;64114.28;;;11.16;83.52
6833;BME280;3454;42.654;23.378;2023-04-22T06:15:16;64138.28;;;11.31;82.31
6833;BME280;3454;42.654;23.378;2023-04-22T06:17:41;64128.63;;;11.24;82.42
6833;BME280;3454;42.654;23.378;2023-04-22T06:20:09;64140.16;;;11.35;81.32
6833;BME280;3454;42.654;23.378;2023-04-22T06:22:35;64090.53;;;10.91;83.50
6833;BME280;3454;42.654;23.378;2023-04-22T06:25:01;64137.41;;;11.32;82.93
6833;BME280;3454;42.654;23.378;2023-04-22T06:27:26;64149.09;;;11.45;81.96
6833;BME280;3454;42.654;23.378;2023-04-22T06:29:52;64170.50;;;11.65;82.08
6833;BME280;3454;42.654;23.378;2023-04-22T06:32:17;64157.13;;;11.50;82.92
6833;BME280;3454;42.654;23.378;2023-04-22T06:34:42;64185.31;;;11.78;82.29
6833;BME280;3454;42.654;23.378;2023-04-22T06:37:08;64219.63;;;12.08;81.76
6833;BME280;3454;42.654;23.378;2023-04-22T06:39:34;64220.94;;;12.11;82.40
6833;BME280;3454;42.654;23.378;2023-04-22T06:41:59;64199.00;;;11.91;82.28
6833;BME280;3454;42.654;23.378;2023-04-22T06:44:25;64189.47;;;11.80;83.44
6833;BME280;3454;42.654;23.378;2023-04-22T06:46:51;64186.75;;;11.77;83.53
6833;BME280;3454;42.654;23.378;2023-04-22T06:49:16;64180.91;;;11.74;83.87
6833;BME280;3454;42.654;23.378;2023-04-22T06:51:42;64212.72;;;12.04;82.61
6833;BME280;3454;42.654;23.378;2023-04-22T06:54:07;64242.84;;;12.31;81.90
6833;BME280;3454;42.654;23.378;2023-04-22T06:56:33;64259.84;;;12.47;81.41
6833;BME280;3454;42.654;23.378;2023-04-22T06:58:59;64257.09;;;12.44;82.77
6833;BME280;3454;42.654;23.378;2023-04-22T07:01:25;64245.25;;;12.36;83.02
6833;BME280;3454;42.654;23.378;2023-04-22T07:03:50;64294.59;;;12.81;91.90
6833;BME280;3454;42.654;23.378;2023-04-22T07:06:16;64307.34;;;12.88;84.44
6833;BME280;3454;42.654;23.378;2023-04-22T07:08:41;64287.81;;;12.73;82.46
6833;BME280;3454;42.654;23.378;2023-04-22T07:11:07;64267.19;;;12.56;81.86
6833;BME280;3454;42.654;23.378;2023-04-22T07:13:34;64272.25;;;12.56;82.80
6833;BME280;3454;42.654;23.378;2023-04-22T07:16:00;64274.31;;;12.62;81.91
6833;BME280;3454;42.654;23.378;2023-04-22T07:18:26;64277.72;;;12.61;80.86
6833;BME280;3454;42.654;23.378;2023-04-22T07:20:51;64288.03;;;12.75;79.51
6833;BME280;3454;42.654;23.378;2023-04-22T07:23:17;64305.38;;;12.89;79.40
6833;BME280;3454;42.654;23.378;2023-04-22T07:25:42;64295.81;;;12.78;79.74
6833;BME280;3454;42.654;23.378;2023-04-22T07:28:08;64308.66;;;12.92;78.05
6833;BME280;3454;42.654;23.378;2023-04-22T07:30:33;64318.53;;;13.01;79.52
6833;BME280;3454;42.654;23.378;2023-04-22T07:32:58;64339.19;;;13.17;78.68
6833;BME280;3454;42.654;23.378;2023-04-22T07:35:24;64355.66;;;13.32;79.11
6833;BME280;3454;42.654;23.378;2023-04-22T07:37:50;64383.31;;;13.60;76.87
6833;BME280;3454;42.654;23.378;2023-04-22T07:40:16;64410.97;;;13.88;75.86
6833;BME280;3454;42.654;23.378;2023-04-22T07:42:41;64422.84;;;13.96;74.80
6833;BME280;3454;42.654;23.378;2023-04-22T07:45:08;64441.19;;;14.15;72.92
6833;BME280;3454;42.654;23.378;2023-04-22T07:47:33;64413.84;;;13.86;74.01
6833;BME280;3454;42.654;23.378;2023-04-22T07:49:59;64416.81;;;13.91;73.85
6833;BME280;3454;42.654;23.378;2023-04-22T07:52:25;64397.03;;;13.73;74.34
6833;BME280;3454;42.654;23.378;2023-04-22T07:54:50;64420.97;;;13.92;70.89
6833;BME280;3454;42.654;23.378;2023-04-22T07:57:16;64434.94;;;14.07;67.69
6833;BME280;3454;42.654;23.378;2023-04-22T07:59:41;64438.56;;;14.08;70.19
6833;BME280;3454;42.654;23.378;2023-04-22T08:02:06;64443.94;;;14.18;70.68
6833;BME280;3454;42.654;23.378;2023-04-22T08:04:32;64459.34;;;14.32;69.85
6833;BME280;3454;42.654;23.378;2023-04-22T08:06:57;64478.34;;;14.47;70.39
6833;BME280;3454;42.654;23.378;2023-04-22T08:09:23;64479.78;;;14.46;70.55
6833;BME280;3454;42.654;23.378;2023-04-22T08:11:48;64481.09;;;14.50;67.38
6833;BME280;3454;42.654;23.378;2023-04-22T08:14:14;64473.38;;;14.43;67.46
6833;BME280;3454;42.654;23.378;2023-04-22T08:16:41;64480.75;;;14.52;67.18
6833;BME280;3454;42.654;23.378;2023-04-22T08:19:06;64475.81;;;14.47;66.66
6833;BME280;3454;42.654;23.378;2023-04-22T08:21:32;64465.72;;;14.36;65.99
6833;BME280;3454;42.654;23.378;2023-04-22T08:23:58;64458.78;;;14.32;67.00
6833;BME280;3454;42.654;23.378;2023-04-22T08:26:23;64487.34;;;14.58;68.23
6833;BME280;3454;42.654;23.378;2023-04-22T08:28:50;64504.38;;;14.73;67.50
6833;BME280;3454;42.654;23.378;2023-04-22T08:31:15;64529.44;;;14.94;67.04
6833;BME280;3454;42.654;23.378;2023-04-22T08:33:41;64528.34;;;14.93;67.82
6833;BME280;3454;42.654;23.378;2023-04-22T08:36:08;64510.97;;;14.79;66.19
6833;BME280;3454;42.654;23.378;2023-04-22T08:38:34;64497.78;;;14.67;66.56
6833;BME280;3454;42.654;23.378;2023-04-22T08:41:00;64509.88;;;14.78;64.69
6833;BME280;3454;42.654;23.378;2023-04-22T08:43:25;64526.34;;;14.93;65.42
6833;BME280;3454;42.654;23.378;2023-04-22T08:45:51;64571.97;;;15.35;62.77
6833;BME280;3454;42.654;23.378;2023-04-22T08:48:20;64560.22;;;15.22;62.39
6833;BME280;3454;42.654;23.378;2023-04-22T08:50:47;64589.06;;;15.51;64.10
6833;BME280;3454;42.654;23.378;2023-04-22T08:53:13;64592.34;;;15.54;61.42
6833;BME280;3454;42.654;23.378;2023-04-22T08:55:42;64589.97;;;15.49;60.63
6833;BME280;3454;42.654;23.378;2023-04-22T08:58:09;64590.50;;;15.50;61.70
6833;BME280;3454;42.654;23.378;2023-04-22T09:00:35;64635.59;;;15.91;61.39
6833;BME280;3454;42.654;23.378;2023-04-22T09:03:01;64683.47;;;16.35;60.11
6833;BME280;3454;42.654;23.378;2023-04-22T09:05:35;64669.91;;;16.25;59.04
6833;BME280;3454;42.654;23.378;2023-04-22T09:08:01;64678.72;;;16.33;58.50
6833;BME280;3454;42.654;23.378;2023-04-22T09:10:28;64707.72;;;16.57;55.11
6833;BME280;3454;42.654;23.378;2023-04-22T09:12:55;64713.97;;;16.65;56.92
6833;BME280;3454;42.654;23.378;2023-04-22T09:15:21;64723.13;;;16.71;57.38
6833;BME280;3454;42.654;23.378;2023-04-22T09:17:50;64732.16;;;16.82;54.89
6833;BME280;3454;42.654;23.378;2023-04-22T09:20:16;64747.56;;;16.96;53.76
6833;BME280;3454;42.654;23.378;2023-04-22T09:22:45;64738.53;;;16.85;52.83
6833;BME280;3454;42.654;23.378;2023-04-22T09:25:14;64770.50;;;17.14;53.97
6833;BME280;3454;42.654;23.378;2023-04-22T09:27:50;64821.94;;;17.63;52.08
6833;BME280;3454;42.654;23.378;2023-04-22T09:30:21;64812.03;;;17.54;51.09
6833;BME280;3454;42.654;23.378;2023-04-22T09:32:55;64815.34;;;17.57;49.20
6833;BME280;3454;42.654;23.378;2023-04-22T09:35:35;64839.59;;;17.80;48.57
6833;BME280;3454;42.654;23.378;2023-04-22T09:38:03;64840.91;;;17.83;49.20
6833;BME280;3454;42.654;23.378;2023-04-22T09:40:37;64863.09;;;17.99;45.16
6833;BME280;3454;42.654;23.378;2023-04-22T09:43:04;64890.31;;;18.26;44.69
6833;BME280;3454;42.654;23.378;2023-04-22T09:45:32;64912.59;;;18.49;46.95
6833;BME280;3454;42.654;23.378;2023-04-22T09:48:09;64918.13;;;18.54;47.02
6833;BME280;3454;42.654;23.378;2023-04-22T09:50:36;64935.00;;;18.67;44.90
6833;BME280;3454;42.654;23.378;2023-04-22T09:53:05;64998.25;;;19.22;44.53
6833;BME280;3454;42.654;23.378;2023-04-22T09:55:34;64995.13;;;19.21;42.55
6833;BME280;3454;42.654;23.378;2023-04-22T09:58:07;64949.91;;;18.80;40.78
6833;BME280;3454;42.654;23.378;2023-04-22T10:00:34;64868.28;;;18.06;42.60
6833;BME280;3454;42.654;23.378;2023-04-22T10:03:02;64852.28;;;17.91;46.83
6833;BME280;3454;42.654;23.378;2023-04-22T10:05:28;64834.66;;;17.75;46.94
6833;BME280;3454;42.654;23.378;2023-04-22T10:07:54;64776.22;;;17.22;48.10
6833;BME280;3454;42.654;23.378;2023-04-22T10:10:20;64712.34;;;16.63;47.93
6833;BME280;3454;42.654;23.378;2023-04-22T10:12:46;64717.81;;;16.68;47.39
6833;BME280;3454;42.654;23.378;2023-04-22T10:15:13;64774.34;;;17.18;46.05
6833;BME280;3454;42.654;23.378;2023-04-22T10:17:40;64778.97;;;17.24;46.41
6833;BME280;3454;42.654;23.378;2023-04-22T10:20:10;64729.94;;;16.79;47.08
6833;BME280;3454;42.654;23.378;2023-04-22T10:22:40;64775.47;;;17.19;45.81
6833;BME280;3454;42.654;23.378;2023-04-22T10:25:20;64776.56;;;17.20;45.29
6833;BME280;3454;42.654;23.378;2023-04-22T10:28:06;64868.81;;;18.06;44.47
6833;BME280;3454;42.654;23.378;2023-04-22T10:30:36;64907.41;;;18.41;43.03
6833;BME280;3454;42.654;23.378;2023-04-22T10:38:39;65033.25;;;19.56;40.90
6833;BME280;3454;42.654;23.378;2023-04-22T10:41:06;65035.47;;;19.58;40.83
6833;BME280;3454;42.654;23.378;2023-04-22T10:43:46;65091.78;;;20.09;40.85
6833;BME280;3454;42.654;23.378;2023-04-22T10:51:49;65120.53;;;20.36;40.11
6833;BME280;3454;42.654;23.378;2023-04-22T10:57:08;65155.00;;;20.69;38.00
6833;BME280;3454;42.654;23.378;2023-04-22T10:59:41;65216.91;;;21.26;37.16
6833;BME280;3454;42.654;23.378;2023-04-22T11:02:07;65224.47;;;21.30;36.26
6833;BME280;3454;42.654;23.378;2023-04-22T11:04:33;65252.88;;;21.58;36.06
6833;BME280;3454;42.654;23.378;2023-04-22T11:09:52;65264.50;;;21.69;37.08
6833;BME280;3454;42.654;23.378;2023-04-22T11:15:05;65323.69;;;22.23;34.40
6833;BME280;3454;42.654;23.378;2023-04-22T11:17:31;65334.56;;;22.30;35.79
6833;BME280;3454;42.654;23.378;2023-04-22T11:19:57;65358.91;;;22.52;35.72
6833;BME280;3454;42.654;23.378;2023-04-22T11:22:23;65349.16;;;22.46;36.85
6833;BME280;3454;42.654;23.378;2023-04-22T11:24:59;65347.31;;;22.42;36.10
6833;BME280;3454;42.654;23.378;2023-04-22T11:27:25;65344.53;;;22.39;35.84
6833;BME280;3454;42.654;23.378;2023-04-22T11:30:11;65360.94;;;22.52;36.94
6833;BME280;3454;42.654;23.378;2023-04-22T11:32:45;65369.84;;;22.67;37.21
6833;BME280;3454;42.654;23.378;2023-04-22T11:35:13;65358.38;;;22.52;36.54
6833;BME280;3454;42.654;23.378;2023-04-22T11:37:44;65207.34;;;21.15;38.09
6833;BME280;3454;42.654;23.378;2023-04-22T11:40:15;65247.31;;;21.53;36.60
6833;BME280;3454;42.654;23.378;2023-04-22T11:42:41;65206.78;;;21.14;38.17
6833;BME280;3454;42.654;23.378;2023-04-22T11:45:07;65133.59;;;20.45;40.25
6833;BME280;3454;42.654;23.378;2023-04-22T11:47:33;65221.13;;;21.27;39.81
6833;BME280;3454;42.654;23.378;2023-04-22T11:50:02;65254.88;;;21.58;39.23
6833;BME280;3454;42.654;23.378;2023-04-22T11:53:01;65289.75;;;21.90;37.84
6833;BME280;3454;42.654;23.378;2023-04-22T11:55:37;65262.63;;;21.65;37.98
6833;BME280;3454;42.654;23.378;2023-04-22T12:03:15;65196.28;;;21.05;38.44
6833;BME280;3454;42.654;23.378;2023-04-22T12:08:15;65204.22;;;21.14;39.23
6833;BME280;3454;42.654;23.378;2023-04-22T12:10:51;65182.63;;;20.95;39.08
6833;BME280;3454;42.654;23.378;2023-04-22T12:15:51;65185.38;;;20.97;40.54
6833;BME280;3454;42.654;23.378;2023-04-22T12:18:30;65157.56;;;20.69;40.11
6833;BME280;3454;42.654;23.378;2023-04-22T12:21:07;65214.16;;;21.23;40.74
6833;BME280;3454;42.654;23.378;2023-04-22T12:23:46;65230.41;;;21.40;39.28
6833;BME280;3454;42.654;23.378;2023-04-22T12:26:14;65231.09;;;21.36;38.91
6833;BME280;3454;42.654;23.378;2023-04-22T12:28:41;65151.13;;;20.66;39.04
6833;BME280;3454;42.654;23.378;2023-04-22T12:31:07;65122.19;;;20.37;38.90
6833;BME280;3454;42.654;23.378;2023-04-22T12:33:34;65089.59;;;20.07;39.75
6833;BME280;3454;42.654;23.378;2023-04-22T12:35:59;65108.38;;;20.25;40.15
6833;BME280;3454;42.654;23.378;2023-04-22T12:38:25;65163.28;;;20.77;39.21
6833;BME280;3454;42.654;23.378;2023-04-22T12:40:51;65165.31;;;20.76;40.70
6833;BME280;3454;42.654;23.378;2023-04-22T12:43:16;65142.63;;;20.56;40.06
6833;BME280;3454;42.654;23.378;2023-04-22T12:45:42;65104.28;;;20.19;41.33
6833;BME280;3454;42.654;23.378;2023-04-22T12:48:07;65119.41;;;20.35;41.69
6833;BME280;3454;42.654;23.378;2023-04-22T12:50:33;65121.25;;;20.32;41.05
6833;BME280;3454;42.654;23.378;2023-04-22T12:52:58;65117.78;;;20.33;41.34
6833;BME280;3454;42.654;23.378;2023-04-22T12:55:24;65134.91;;;20.49;41.53
6833;BME280;3454;42.654;23.378;2023-04-22T12:57:50;65085.34;;;20.06;43.36
6833;BME280;3454;42.654;23.378;2023-04-22T13:00:16;65146.50;;;20.59;41.91
6833;BME280;3454;42.654;23.378;2023-04-22T13:02:44;65162.53;;;20.74;42.19
6833;BME280;3454;42.654;23.378;2023-04-22T13:05:10;65224.47;;;21.30;41.27
6833;BME280;3454;42.654;23.378;2023-04-22T13:07:39;65270.38;;;21.72;40.56
6833;BME280;3454;42.654;23.378;2023-04-22T13:10:07;65278.66;;;21.80;40.18
6833;BME280;3454;42.654;23.378;2023-04-22T13:12:33;65301.56;;;22.03;40.16
6833;BME280;3454;42.654;23.378;2023-04-22T13:14:58;65339.75;;;22.37;39.10
6833;BME280;3454;42.654;23.378;2023-04-22T13:17:24;65328.47;;;22.25;38.19
6833;BME280;3454;42.654;23.378;2023-04-22T13:19:50;65284.63;;;21.90;38.77
6833;BME280;3454;42.654;23.378;2023-04-22T13:22:16;65268.72;;;21.70;38.89
6833;BME280;3454;42.654;23.378;2023-04-22T13:24:42;65189.47;;;21.03;40.69
6833;BME280;3454;42.654;23.378;2023-04-22T13:27:08;65297.50;;;21.97;38.75
6833;BME280;3454;42.654;23.378;2023-04-22T13:29:34;65348.97;;;22.43;37.46
6833;BME280;3454;42.654;23.378;2023-04-22T13:31:59;65372.06;;;22.69;36.92
6833;BME280;3454;42.654;23.378;2023-04-22T13:34:25;65407.13;;;22.96;36.87
6833;BME280;3454;42.654;23.378;2023-04-22T13:36:50;65415.97;;;23.04;36.86
6833;BME280;3454;42.654;23.378;2023-04-22T13:39:16;65416.16;;;23.07;37.85